Decoded Metar for LFPB (PARIS LE BOURGET in FRANCE) (IATA:LBG) | Meteo·Mobile Aviation Weather
aviador You're here:

LFPB Decoded Metar

PARIS LE BOURGET in FRANCE
Report Time2018-12-16 09:30:00
UTC Time2018-12-16 10:01:49
Flight Rules lifr LIFR
Wind200° at 05 kt
W.Decomp.*RWY 21: 4.9 kt HW 0.8 kt LCW
RWY 25: 3.3 kt HW 3.8 kt LCW
RWY 27: 1.8 kt HW 4.7 kt LCW
W.Rank200° ranks 12
Current wind is below 200° avg. (8.7)
Visibility4800 m
Phenomena:Mist
Fog
Clouds:Overcast 003 Hf
Expected CloudBase > 400 ft AGL from Temp-Dew spread
Ceiling300 ft
Temp05°C (ISA -10)
Dew Point04°C (93% RH)
AAT1.9°C
QNH1012 hPa
Density Alt-801 ft
Elevation213 ft
Report Wrong Elevation
Raw Report
METAR LFPB 160930Z AUTO 20005KT 4800 BR OVC003 05/04 Q1012 TEMPO 0500
FG VV///=

Extra information for LFPB:More info

Metar Taf Metar & Taf Last 4 Metars F.Rules Stats Wind Profile Meteogram Temp Stats Airport Information Weather charts Add Link Nearby VenuesMetar ALERT Operation Metar Decoded Social comments